createdAt,value
2022-12-05T00:00:35.629Z,30.47
2022-12-05T00:02:38.571Z,29.63
2022-12-05T00:04:41.671Z,30.93
2022-12-05T00:06:45.457Z,27.37
2022-12-05T00:08:50.212Z,26.30
2022-12-05T00:10:53.085Z,27.50
2022-12-05T00:12:55.932Z,25.67
2022-12-05T00:14:58.966Z,27.57
2022-12-05T00:17:01.925Z,27.97
2022-12-05T00:19:06.575Z,25.83
2022-12-05T00:21:14.613Z,26.07
2022-12-05T00:23:17.469Z,30.90
2022-12-05T00:25:21.848Z,27.57
2022-12-05T00:27:24.768Z,27.33
2022-12-05T00:29:27.833Z,26.87
2022-12-05T00:31:30.760Z,29.97
2022-12-05T00:33:33.783Z,25.50
2022-12-05T00:35:36.712Z,26.50
2022-12-05T00:37:39.623Z,26.27
2022-12-05T00:39:42.503Z,28.27
2022-12-05T00:41:46.774Z,27.80
2022-12-05T00:43:49.976Z,28.07
2022-12-05T00:45:53.009Z,27.87
2022-12-05T00:47:56.130Z,29.10
2022-12-05T00:49:59.275Z,29.83
2022-12-05T00:52:02.473Z,25.50
2022-12-05T00:54:07.320Z,28.80
2022-12-05T00:56:13.017Z,26.97
2022-12-05T00:58:17.374Z,30.23
2022-12-05T01:00:21.102Z,25.93
2022-12-05T01:02:24.262Z,27.07
2022-12-05T01:04:27.276Z,31.13
2022-12-05T01:06:30.322Z,25.93
2022-12-05T01:08:33.737Z,27.33
2022-12-05T01:10:36.659Z,29.33
2022-12-05T01:12:39.597Z,24.70
2022-12-05T01:14:43.950Z,32.10
2022-12-05T01:16:48.698Z,27.63
2022-12-05T01:18:51.788Z,24.03
2022-12-05T01:20:54.848Z,25.83
2022-12-05T01:22:57.693Z,27.93
2022-12-05T01:25:00.723Z,30.00
2022-12-05T01:27:03.797Z,26.97
2022-12-05T01:29:06.978Z,27.33
2022-12-05T01:31:19.195Z,29.00
2022-12-05T01:33:22.262Z,30.20
2022-12-05T01:35:25.339Z,28.10
2022-12-05T01:37:28.341Z,27.60
2022-12-05T01:39:31.414Z,25.83
2022-12-05T01:41:37.210Z,23.67
2022-12-05T01:43:56.011Z,27.80
2022-12-05T01:45:59.307Z,35.77
2022-12-05T01:48:07.076Z,25.23
2022-12-05T01:50:10.876Z,28.17
2022-12-05T01:52:19.361Z,26.77
2022-12-05T01:54:23.585Z,28.80
2022-12-05T01:56:26.640Z,25.63
2022-12-05T01:58:33.378Z,26.53
2022-12-05T02:00:36.337Z,28.00
2022-12-05T02:02:41.655Z,26.43
2022-12-05T02:04:56.699Z,26.77
2022-12-05T02:06:59.597Z,26.93
2022-12-05T02:09:02.709Z,32.63
2022-12-05T02:11:08.582Z,29.73
2022-12-05T02:13:32.401Z,26.10
2022-12-05T02:15:43.568Z,32.90
2022-12-05T02:17:55.321Z,29.70
2022-12-05T02:20:15.074Z,31.43
2022-12-05T02:23:05.988Z,30.67
2022-12-05T02:25:23.843Z,29.47
2022-12-05T02:28:13.863Z,29.37
2022-12-05T02:30:20.982Z,24.23
2022-12-05T02:32:39.237Z,25.93
2022-12-05T02:34:48.965Z,26.97
2022-12-05T02:36:58.447Z,25.03
2022-12-05T02:39:07.546Z,24.47
2022-12-05T02:41:20.253Z,28.10
2022-12-05T02:43:27.826Z,25.43
2022-12-05T02:45:35.545Z,23.17
2022-12-05T02:47:42.361Z,27.17
2022-12-05T02:49:45.361Z,23.83
2022-12-05T02:51:51.579Z,26.93
2022-12-05T02:53:58.497Z,25.10
2022-12-05T02:56:02.174Z,24.03
2022-12-05T02:58:10.048Z,24.07
2022-12-05T03:00:14.015Z,23.73
2022-12-05T03:02:30.007Z,22.13
2022-12-05T03:04:34.079Z,24.97
2022-12-05T03:06:42.598Z,27.33
2022-12-05T03:08:49.922Z,23.20
2022-12-05T03:10:54.955Z,23.63
2022-12-05T03:13:01.544Z,26.73
2022-12-05T03:15:09.902Z,21.93
2022-12-05T03:17:18.375Z,22.03
2022-12-05T03:19:28.457Z,22.03
2022-12-05T03:21:36.736Z,28.63
2022-12-05T03:23:43.134Z,22.47
2022-12-05T03:25:53.371Z,23.60
2022-12-05T03:28:07.037Z,24.90
2022-12-05T03:30:11.865Z,23.50
2022-12-05T03:32:22.967Z,22.63
2022-12-05T03:34:49.415Z,22.37
2022-12-05T03:36:54.600Z,22.43
2022-12-05T03:39:01.821Z,20.63
2022-12-05T03:41:10.497Z,19.57
2022-12-05T03:43:23.482Z,18.33
2022-12-05T03:45:32.985Z,21.87
2022-12-05T03:47:43.358Z,19.60
2022-12-05T03:49:52.277Z,17.07
2022-12-05T03:52:13.282Z,21.80
2022-12-05T03:54:23.362Z,17.27
2022-12-05T03:56:31.449Z,17.80
2022-12-05T03:58:38.843Z,16.37
2022-12-05T04:00:46.234Z,17.67
2022-12-05T04:02:54.448Z,16.63
2022-12-05T04:05:06.540Z,17.37
2022-12-05T04:07:11.238Z,17.17
2022-12-05T04:09:18.910Z,17.30
2022-12-05T04:11:25.978Z,15.80
2022-12-05T04:13:34.520Z,17.93
2022-12-05T04:15:51.467Z,15.87
2022-12-05T04:17:59.401Z,18.77
2022-12-05T04:20:25.583Z,16.37
2022-12-05T04:22:28.852Z,16.07
2022-12-05T04:24:50.843Z,14.60
2022-12-05T04:27:06.000Z,14.60
2022-12-05T04:29:14.941Z,14.43
2022-12-05T04:31:23.737Z,14.97
2022-12-05T04:33:33.455Z,16.17
2022-12-05T04:35:42.792Z,17.37
2022-12-05T04:37:50.806Z,15.17
2022-12-05T04:39:59.282Z,15.90
2022-12-05T04:42:07.510Z,13.77
2022-12-05T04:44:13.565Z,13.47
2022-12-05T04:46:19.365Z,14.77
2022-12-05T04:48:25.148Z,19.03
2022-12-05T04:50:32.600Z,13.53
2022-12-05T04:52:37.913Z,14.37
2022-12-05T04:54:46.406Z,14.27
2022-12-05T04:56:55.652Z,16.80
2022-12-05T04:59:02.592Z,13.73
2022-12-05T05:01:10.485Z,11.73
2022-12-05T05:03:19.322Z,14.43
2022-12-05T05:05:23.802Z,13.13
2022-12-05T05:07:26.859Z,12.53
2022-12-05T05:09:31.785Z,10.80
2022-12-05T05:11:36.308Z,13.77
2022-12-05T05:13:39.234Z,14.67
2022-12-05T05:15:42.127Z,13.67
2022-12-05T05:17:45.114Z,12.77
2022-12-05T05:19:48.223Z,15.07
2022-12-05T05:21:52.041Z,11.40
2022-12-05T05:23:55.269Z,13.23
2022-12-05T05:25:59.482Z,12.70
2022-12-05T05:28:02.557Z,11.13
2022-12-05T05:30:06.443Z,16.40
2022-12-05T05:32:09.404Z,11.33
2022-12-05T05:34:15.791Z,12.67
2022-12-05T05:36:19.601Z,12.13
2022-12-05T05:38:22.557Z,12.47
2022-12-05T05:40:25.423Z,13.40
2022-12-05T05:42:29.760Z,21.40
2022-12-05T05:44:32.651Z,14.30
2022-12-05T05:46:36.608Z,18.37
2022-12-05T05:48:39.764Z,17.10
2022-12-05T05:50:42.602Z,13.47
2022-12-05T05:52:45.504Z,13.60
2022-12-05T05:54:48.473Z,12.97
2022-12-05T05:56:51.497Z,10.93
2022-12-05T05:59:00.918Z,11.77
2022-12-05T06:01:05.328Z,11.40
2022-12-05T06:03:08.383Z,11.43
2022-12-05T06:05:11.529Z,15.77
2022-12-05T06:07:14.499Z,11.80
2022-12-05T06:09:17.583Z,12.30
2022-12-05T06:11:25.967Z,10.80
2022-12-05T06:13:29.418Z,12.07
2022-12-05T06:15:33.648Z,10.00
2022-12-05T06:17:36.629Z,9.13
2022-12-05T06:19:39.519Z,12.33
2022-12-05T06:21:42.426Z,9.83
2022-12-05T06:23:45.840Z,11.07
2022-12-05T06:25:49.935Z,10.63
2022-12-05T06:27:52.833Z,12.80
2022-12-05T06:29:55.963Z,12.30
2022-12-05T06:32:00.410Z,11.77
2022-12-05T06:34:04.730Z,11.73
2022-12-05T06:36:09.750Z,10.57
2022-12-05T06:38:12.900Z,12.50
2022-12-05T06:40:16.079Z,16.03
2022-12-05T06:42:18.956Z,15.33
2022-12-05T06:44:22.093Z,15.03
2022-12-05T06:46:26.255Z,15.70
2022-12-05T06:48:30.574Z,22.40
2022-12-05T06:50:33.485Z,17.33
2022-12-05T06:52:36.380Z,15.23
2022-12-05T06:54:39.259Z,12.43
2022-12-05T06:56:42.120Z,12.00
2022-12-05T06:58:46.258Z,14.43
2022-12-05T07:01:06.472Z,11.50
2022-12-05T07:03:12.279Z,11.07
2022-12-05T07:05:16.601Z,11.30
2022-12-05T07:07:19.507Z,11.27
2022-12-05T07:09:45.705Z,10.30
2022-12-05T07:11:49.150Z,14.17
2022-12-05T07:13:52.118Z,10.43
2022-12-05T07:15:55.098Z,20.20
2022-12-05T07:17:57.986Z,15.57
2022-12-05T07:20:01.245Z,13.63
2022-12-05T07:22:09.489Z,13.97
2022-12-05T07:24:16.795Z,13.40
2022-12-05T07:26:21.763Z,12.90
2022-12-05T07:28:24.824Z,11.67
2022-12-05T07:30:27.906Z,11.23
2022-12-05T07:32:33.869Z,11.30
2022-12-05T07:34:38.698Z,12.73
2022-12-05T07:36:41.766Z,12.83
2022-12-05T07:38:46.573Z,11.37
2022-12-05T07:40:49.426Z,9.50
2022-12-05T07:42:53.398Z,13.57
2022-12-05T07:44:56.357Z,12.00
2022-12-05T07:46:59.623Z,14.57
2022-12-05T07:49:02.627Z,11.37
2022-12-05T07:51:07.251Z,14.70
2022-12-05T07:53:10.196Z,13.17
2022-12-05T07:55:14.376Z,15.23
2022-12-05T07:57:17.600Z,13.83
2022-12-05T07:59:20.675Z,10.07
2022-12-05T08:01:25.776Z,14.20
2022-12-05T08:03:28.771Z,11.87
2022-12-05T08:05:31.638Z,10.57
2022-12-05T08:07:34.704Z,14.50
2022-12-05T08:09:37.734Z,14.77
2022-12-05T08:11:42.277Z,10.70
2022-12-05T08:13:46.241Z,12.67
2022-12-05T08:15:49.212Z,10.30
2022-12-05T08:17:52.228Z,13.10
2022-12-05T08:19:56.240Z,9.57
2022-12-05T08:21:59.449Z,10.63
2022-12-05T08:24:04.812Z,9.00
2022-12-05T08:26:09.477Z,10.83
2022-12-05T08:28:13.784Z,8.60
2022-12-05T08:30:16.694Z,11.27
2022-12-05T08:32:19.598Z,11.83
2022-12-05T08:34:22.497Z,10.83
2022-12-05T08:36:25.713Z,9.97
2022-12-05T08:38:28.727Z,10.20
2022-12-05T08:40:31.608Z,9.87
2022-12-05T08:42:34.596Z,10.47
2022-12-05T08:44:38.819Z,10.10
2022-12-05T08:46:41.844Z,9.67
2022-12-05T08:48:45.052Z,9.30
2022-12-05T08:50:48.425Z,10.23
2022-12-05T08:52:51.353Z,9.27
2022-12-05T08:54:54.389Z,11.53
2022-12-05T08:56:59.520Z,9.53
2022-12-05T08:59:05.744Z,11.03
2022-12-05T09:01:15.948Z,11.67
2022-12-05T09:03:18.883Z,10.83
2022-12-05T09:05:28.321Z,10.97
2022-12-05T09:07:32.205Z,14.03
2022-12-05T09:09:35.585Z,13.10
2022-12-05T09:11:44.009Z,11.70
2022-12-05T09:13:47.822Z,14.07
2022-12-05T09:15:50.744Z,11.37
2022-12-05T09:17:55.933Z,10.80
2022-12-05T09:19:58.805Z,12.03
2022-12-05T09:22:01.738Z,9.47
2022-12-05T09:24:05.054Z,10.03
2022-12-05T09:26:11.896Z,10.07
2022-12-05T09:28:14.894Z,10.30
2022-12-05T09:30:17.835Z,12.33
2022-12-05T09:32:20.908Z,10.43
2022-12-05T09:34:26.015Z,11.00
2022-12-05T09:36:30.722Z,9.67
2022-12-05T09:38:33.879Z,10.37
2022-12-05T09:40:42.848Z,12.57
2022-12-05T09:42:57.520Z,15.93
2022-12-05T09:45:06.949Z,11.83
2022-12-05T09:47:18.067Z,13.87
2022-12-05T09:49:22.776Z,13.27
2022-12-05T09:51:28.369Z,11.73
2022-12-05T09:53:34.994Z,11.97
2022-12-05T09:55:45.291Z,13.13
2022-12-05T09:57:52.239Z,14.10
2022-12-05T09:59:55.655Z,13.10
2022-12-05T10:02:07.296Z,14.60
2022-12-05T10:04:26.687Z,16.20
2022-12-05T10:06:35.986Z,14.70
2022-12-05T10:08:48.363Z,16.73
2022-12-05T10:11:01.112Z,18.37
2022-12-05T10:13:22.649Z,20.90
2022-12-05T10:15:33.411Z,19.10
2022-12-05T10:17:39.511Z,14.40
2022-12-05T10:19:47.434Z,17.20
2022-12-05T10:21:58.990Z,17.70
2022-12-05T10:24:04.386Z,16.67
2022-12-05T10:26:11.067Z,16.20
2022-12-05T10:28:19.408Z,12.30
2022-12-05T10:30:24.271Z,12.53
2022-12-05T10:32:32.784Z,12.50
2022-12-05T10:34:40.100Z,15.10
2022-12-05T10:36:46.103Z,11.03
2022-12-05T10:38:50.867Z,11.70
2022-12-05T10:40:58.116Z,13.17
2022-12-05T10:43:01.194Z,11.67
2022-12-05T10:45:06.892Z,17.47
2022-12-05T10:47:10.141Z,11.20
2022-12-05T10:49:14.042Z,10.53
2022-12-05T10:51:32.539Z,13.03
2022-12-05T10:53:41.633Z,11.17
2022-12-05T10:56:21.611Z,12.40
2022-12-05T10:58:17.516Z,11.90
2022-12-05T11:00:25.302Z,13.90
2022-12-05T11:02:31.274Z,12.87
2022-12-05T11:04:44.424Z,11.93
2022-12-05T11:06:56.780Z,15.03
2022-12-05T11:09:05.456Z,15.77
2022-12-05T11:11:20.256Z,16.33
2022-12-05T11:13:26.641Z,14.43
2022-12-05T11:15:30.823Z,15.47
2022-12-05T11:17:35.868Z,15.57
2022-12-05T11:19:39.738Z,14.67
2022-12-05T11:21:44.090Z,16.33
2022-12-05T11:23:47.214Z,16.00
2022-12-05T11:25:50.235Z,18.97
2022-12-05T11:27:58.344Z,14.10
2022-12-05T11:30:16.256Z,19.50
2022-12-05T11:32:21.354Z,17.37
2022-12-05T11:34:28.258Z,14.03
2022-12-05T11:36:40.372Z,15.80
2022-12-05T11:38:43.671Z,16.80
2022-12-05T11:40:54.514Z,16.33
2022-12-05T11:43:20.833Z,14.33
2022-12-05T11:45:42.164Z,18.47
2022-12-05T11:48:22.739Z,14.23
2022-12-05T11:50:37.068Z,15.90
2022-12-05T11:52:53.278Z,15.13
2022-12-05T11:55:07.162Z,16.43
2022-12-05T11:57:17.994Z,15.13
2022-12-05T11:59:45.012Z,16.10
2022-12-05T12:01:54.838Z,15.97
2022-12-05T12:04:32.454Z,15.57
2022-12-05T12:06:49.003Z,15.90
2022-12-05T12:09:05.970Z,19.00
2022-12-05T12:11:16.501Z,14.30
2022-12-05T12:13:30.841Z,16.87
2022-12-05T12:15:53.836Z,15.33
2022-12-05T12:18:06.168Z,15.37
2022-12-05T12:20:23.472Z,19.50
2022-12-05T12:22:45.748Z,16.13
2022-12-05T12:25:03.516Z,15.00
2022-12-05T12:27:16.951Z,16.40
2022-12-05T12:29:32.110Z,16.80
2022-12-05T12:32:04.515Z,17.20
2022-12-05T12:34:19.319Z,22.17
2022-12-05T12:36:27.487Z,19.83
2022-12-05T12:39:08.421Z,19.77
2022-12-05T12:41:20.276Z,17.87
2022-12-05T12:43:56.309Z,15.03
2022-12-05T12:46:22.867Z,20.87
2022-12-05T12:48:42.848Z,15.60
2022-12-05T12:50:51.748Z,18.50
2022-12-05T12:53:24.497Z,17.43
2022-12-05T12:55:37.556Z,15.43
2022-12-05T12:57:57.726Z,13.27
2022-12-05T13:00:05.657Z,16.40
2022-12-05T13:02:16.121Z,12.90
2022-12-05T13:04:25.348Z,14.13
2022-12-05T13:06:31.292Z,14.33
2022-12-05T13:08:40.408Z,16.60
2022-12-05T13:10:45.073Z,14.70
2022-12-05T13:12:49.311Z,15.17
2022-12-05T13:14:56.651Z,14.07
2022-12-05T13:17:01.390Z,16.87
2022-12-05T13:19:07.180Z,19.47
2022-12-05T13:21:11.991Z,17.30
2022-12-05T13:23:17.244Z,18.30
2022-12-05T13:25:25.452Z,21.50
2022-12-05T13:27:29.265Z,18.70
2022-12-05T13:29:35.990Z,21.57
2022-12-05T13:31:42.165Z,42.77
2022-12-05T13:33:47.621Z,20.10
2022-12-05T13:36:10.681Z,19.87
2022-12-05T13:38:41.227Z,20.40
2022-12-05T13:41:10.725Z,23.10
2022-12-05T13:43:15.863Z,24.30
2022-12-05T13:45:21.145Z,22.17
2022-12-05T13:47:32.157Z,22.50
2022-12-05T13:49:44.308Z,25.00
2022-12-05T13:51:47.984Z,21.53
2022-12-05T13:54:01.546Z,23.37
2022-12-05T13:56:07.702Z,20.13
2022-12-05T13:58:42.953Z,20.77
2022-12-05T14:00:46.322Z,18.07
2022-12-05T14:02:54.391Z,20.27
2022-12-05T14:04:57.382Z,23.37
2022-12-05T14:07:00.387Z,22.50
2022-12-05T14:09:05.777Z,25.27
2022-12-05T14:11:11.900Z,22.50
2022-12-05T14:13:43.560Z,23.50
2022-12-05T14:15:48.133Z,22.57
2022-12-05T14:17:52.083Z,22.80
2022-12-05T14:20:19.896Z,19.47
2022-12-05T14:22:40.397Z,23.80
2022-12-05T14:24:55.782Z,24.87
2022-12-05T14:27:08.644Z,21.67
2022-12-05T14:29:33.087Z,20.50
2022-12-05T14:31:46.691Z,21.03
2022-12-05T14:34:06.170Z,23.97
2022-12-05T14:36:16.962Z,22.87
2022-12-05T14:38:28.180Z,24.73
2022-12-05T14:40:34.936Z,23.40
2022-12-05T14:42:42.423Z,21.10
2022-12-05T14:44:49.812Z,20.83
2022-12-05T14:46:52.782Z,25.10
2022-12-05T14:48:56.169Z,25.17
2022-12-05T14:51:01.076Z,24.20
2022-12-05T14:53:23.038Z,20.33
2022-12-05T14:55:27.187Z,23.30
2022-12-05T14:57:33.648Z,21.03
2022-12-05T14:59:45.457Z,22.67
2022-12-05T15:01:52.762Z,23.13
2022-12-05T15:04:11.246Z,21.50
2022-12-05T15:06:17.956Z,21.67
2022-12-05T15:08:22.619Z,24.53
2022-12-05T15:10:28.818Z,21.50
2022-12-05T15:12:39.772Z,18.77
2022-12-05T15:14:54.595Z,16.73
2022-12-05T15:17:00.733Z,17.80
2022-12-05T15:19:08.214Z,20.80
2022-12-05T15:21:19.219Z,16.83
2022-12-05T15:23:42.288Z,20.23
2022-12-05T15:25:45.212Z,17.70
2022-12-05T15:27:55.975Z,24.40
2022-12-05T15:29:59.909Z,20.00
2022-12-05T15:32:06.149Z,22.10
2022-12-05T15:34:17.410Z,17.10
2022-12-05T15:36:24.666Z,18.70
2022-12-05T15:38:32.087Z,18.43
2022-12-05T15:40:37.823Z,19.53
2022-12-05T15:42:43.884Z,17.43
2022-12-05T15:44:48.154Z,18.03
2022-12-05T15:46:53.767Z,17.40
2022-12-05T15:48:59.607Z,21.47
2022-12-05T15:51:03.934Z,18.30
2022-12-05T15:53:12.848Z,17.53
2022-12-05T15:55:19.908Z,16.90
2022-12-05T15:57:29.454Z,20.87
2022-12-05T15:59:37.165Z,18.20
2022-12-05T16:01:46.381Z,19.87
2022-12-05T16:03:53.919Z,21.87
2022-12-05T16:06:00.606Z,19.50
2022-12-05T16:08:04.336Z,16.20
2022-12-05T16:10:14.464Z,19.33
2022-12-05T16:12:26.076Z,19.60
2022-12-05T16:14:58.918Z,15.63
2022-12-05T16:17:02.694Z,17.73
2022-12-05T16:19:07.446Z,16.63
2022-12-05T16:21:37.854Z,16.90
2022-12-05T16:23:43.982Z,20.13
2022-12-05T16:25:46.920Z,17.97
2022-12-05T16:27:58.234Z,17.00
2022-12-05T16:30:20.037Z,19.33
2022-12-05T16:32:26.429Z,18.73
2022-12-05T16:34:30.874Z,17.13
2022-12-05T16:36:34.630Z,18.90
2022-12-05T16:38:40.053Z,17.37
2022-12-05T16:40:55.734Z,18.70
2022-12-05T16:43:03.364Z,15.13
2022-12-05T16:45:07.389Z,16.40
2022-12-05T16:47:23.979Z,15.40
2022-12-05T16:49:39.998Z,14.53
2022-12-05T16:51:53.941Z,16.07
2022-12-05T16:53:57.990Z,35.67
2022-12-05T16:56:01.631Z,31.93
2022-12-05T16:58:05.434Z,21.57
2022-12-05T17:00:14.573Z,29.37
2022-12-05T17:02:20.875Z,23.80
2022-12-05T17:04:23.937Z,24.67
2022-12-05T17:06:29.422Z,20.20
2022-12-05T17:08:32.307Z,15.60
2022-12-05T17:10:35.277Z,19.27
2022-12-05T17:12:39.467Z,17.27
2022-12-05T17:14:43.979Z,14.03
2022-12-05T17:16:47.056Z,18.17
2022-12-05T17:18:50.028Z,13.70
2022-12-05T17:20:57.148Z,15.87
2022-12-05T17:23:01.524Z,13.27
2022-12-05T17:25:04.630Z,20.70
2022-12-05T17:27:07.595Z,14.73
2022-12-05T17:29:11.564Z,15.60
2022-12-05T17:31:17.354Z,16.67
2022-12-05T17:33:20.870Z,14.60
2022-12-05T17:35:25.265Z,20.40
2022-12-05T17:37:28.220Z,24.07
2022-12-05T17:39:32.670Z,15.63
2022-12-05T17:41:35.734Z,16.07
2022-12-05T17:43:38.806Z,15.90
2022-12-05T17:45:41.838Z,18.03
2022-12-05T17:47:44.862Z,17.13
2022-12-05T17:49:47.750Z,14.90
2022-12-05T17:52:20.603Z,15.17
2022-12-05T17:54:16.512Z,15.40
2022-12-05T17:56:21.070Z,21.13
2022-12-05T17:58:23.920Z,36.37
2022-12-05T18:00:26.958Z,21.30
2022-12-05T18:02:30.118Z,18.77
2022-12-05T18:04:33.060Z,18.97
2022-12-05T18:06:36.040Z,20.50
2022-12-05T18:08:39.907Z,21.13
2022-12-05T18:10:43.568Z,18.37
2022-12-05T18:12:48.447Z,14.70
2022-12-05T18:14:51.437Z,16.47
2022-12-05T18:16:54.334Z,15.83
2022-12-05T18:18:57.242Z,14.63
2022-12-05T18:21:08.247Z,16.53
2022-12-05T18:23:11.682Z,17.90
2022-12-05T18:25:14.565Z,18.67
2022-12-05T18:27:17.488Z,17.57
2022-12-05T18:29:21.699Z,17.37
2022-12-05T18:31:24.858Z,14.03
2022-12-05T18:33:27.742Z,14.57
2022-12-05T18:35:42.647Z,18.00
2022-12-05T18:37:45.534Z,18.23
2022-12-05T18:39:48.535Z,16.83
2022-12-05T18:41:51.495Z,22.27
2022-12-05T18:43:54.862Z,16.93
2022-12-05T18:46:00.910Z,40.87
2022-12-05T18:48:23.450Z,34.60
2022-12-05T18:50:26.853Z,20.00
2022-12-05T18:52:29.753Z,18.30
2022-12-05T18:54:32.648Z,19.43
2022-12-05T18:56:36.864Z,16.57
2022-12-05T18:58:39.833Z,23.17
2022-12-05T19:00:43.107Z,18.27
2022-12-05T19:02:48.996Z,19.60
2022-12-05T19:04:51.902Z,18.90
2022-12-05T19:06:56.005Z,23.83
2022-12-05T19:09:00.263Z,21.17
2022-12-05T19:11:05.369Z,21.13
2022-12-05T19:13:08.281Z,19.97
2022-12-05T19:15:11.907Z,22.57
2022-12-05T19:17:14.912Z,17.03
2022-12-05T19:19:20.199Z,21.57
2022-12-05T19:21:23.275Z,18.50
2022-12-05T19:23:26.542Z,20.73
2022-12-05T19:25:30.072Z,21.43
2022-12-05T19:27:33.000Z,20.83
2022-12-05T19:29:36.089Z,22.10
2022-12-05T19:31:39.470Z,20.80
2022-12-05T19:33:44.277Z,19.13
2022-12-05T19:35:48.545Z,20.77
2022-12-05T19:37:51.483Z,18.77
2022-12-05T19:39:54.354Z,18.03
2022-12-05T19:41:59.361Z,18.57
2022-12-05T19:44:02.902Z,18.37
2022-12-05T19:46:07.438Z,18.47
2022-12-05T19:48:10.444Z,25.37
2022-12-05T19:50:13.586Z,29.87
2022-12-05T19:52:18.136Z,127.77
2022-12-05T19:54:22.139Z,106.43
2022-12-05T19:56:26.893Z,27.80
2022-12-05T19:58:32.153Z,24.40
2022-12-05T20:00:35.125Z,17.63
2022-12-05T20:02:40.277Z,32.50
2022-12-05T20:04:44.011Z,17.37
2022-12-05T20:06:48.924Z,16.57
2022-12-05T20:08:55.899Z,21.27
2022-12-05T20:11:04.433Z,15.03
2022-12-05T20:13:24.141Z,15.03
2022-12-05T20:15:30.312Z,16.20
2022-12-05T20:17:33.299Z,16.17
2022-12-05T20:19:36.219Z,19.63
2022-12-05T20:21:40.479Z,17.03
2022-12-05T20:23:43.564Z,24.20
2022-12-05T20:25:47.870Z,17.33
2022-12-05T20:27:51.933Z,17.97
2022-12-05T20:29:54.878Z,17.47
2022-12-05T20:31:58.504Z,17.43
2022-12-05T20:34:01.790Z,18.60
2022-12-05T20:36:06.302Z,13.77
2022-12-05T20:38:09.215Z,15.33
2022-12-05T20:40:12.358Z,16.40
2022-12-05T20:42:16.722Z,18.07
2022-12-05T20:44:19.645Z,18.60
2022-12-05T20:46:23.327Z,16.17
2022-12-05T20:48:26.877Z,13.10
2022-12-05T20:50:29.768Z,12.97
2022-12-05T20:52:32.692Z,14.43
2022-12-05T20:54:35.619Z,13.40
2022-12-05T20:56:38.564Z,14.37
2022-12-05T20:58:45.666Z,16.80
2022-12-05T21:00:48.655Z,12.67
2022-12-05T21:02:51.701Z,12.20
2022-12-05T21:04:55.133Z,14.13
2022-12-05T21:06:58.048Z,13.53
2022-12-05T21:09:02.226Z,12.73
2022-12-05T21:11:05.561Z,11.37
2022-12-05T21:13:08.488Z,12.07
2022-12-05T21:15:12.960Z,11.97
2022-12-05T21:17:16.012Z,12.73
2022-12-05T21:19:19.735Z,14.57
2022-12-05T21:21:24.453Z,15.20
2022-12-05T21:23:27.787Z,14.00
2022-12-05T21:25:30.693Z,13.83
2022-12-05T21:27:33.783Z,11.67
2022-12-05T21:29:36.707Z,12.03
2022-12-05T21:31:42.715Z,12.13
2022-12-05T21:33:49.208Z,11.87
2022-12-05T21:35:55.615Z,12.33
2022-12-05T21:37:58.598Z,12.83
2022-12-05T21:40:01.599Z,13.47
2022-12-05T21:42:04.832Z,11.57
2022-12-05T21:44:08.298Z,12.77
2022-12-05T21:46:11.253Z,12.47
2022-12-05T21:48:15.493Z,11.73
2022-12-05T21:50:18.565Z,12.10
2022-12-05T21:52:21.900Z,9.57
2022-12-05T21:54:24.788Z,12.47
2022-12-05T21:56:28.403Z,10.67
2022-12-05T21:58:31.478Z,13.63
2022-12-05T22:00:34.713Z,13.27
2022-12-05T22:02:37.596Z,11.43
2022-12-05T22:04:41.874Z,12.00
2022-12-05T22:06:44.748Z,11.70
2022-12-05T22:08:47.705Z,10.50
2022-12-05T22:10:50.544Z,11.03
2022-12-05T22:12:53.463Z,10.70
2022-12-05T22:14:56.349Z,13.27
2022-12-05T22:16:59.285Z,11.63
2022-12-05T22:19:02.519Z,12.07
2022-12-05T22:21:08.329Z,11.00
2022-12-05T22:23:15.397Z,9.40
2022-12-05T22:25:19.711Z,11.50
2022-12-05T22:27:23.120Z,9.37
2022-12-05T22:29:25.978Z,11.80
2022-12-05T22:31:28.959Z,10.97
2022-12-05T22:33:32.560Z,9.83
2022-12-05T22:35:36.247Z,11.60
2022-12-05T22:37:40.468Z,10.77
2022-12-05T22:39:43.390Z,13.10
2022-12-05T22:41:46.299Z,11.80
2022-12-05T22:43:50.659Z,12.20
2022-12-05T22:45:53.804Z,11.93
2022-12-05T22:47:56.750Z,12.77
2022-12-05T22:49:59.703Z,10.90
2022-12-05T22:52:02.749Z,11.00
2022-12-05T22:54:07.177Z,11.30
2022-12-05T22:56:12.363Z,11.80
2022-12-05T22:58:15.567Z,13.33
2022-12-05T23:00:20.117Z,10.40
2022-12-05T23:02:23.376Z,15.00
2022-12-05T23:04:26.700Z,14.77
2022-12-05T23:06:30.990Z,12.50
2022-12-05T23:08:34.364Z,11.80
2022-12-05T23:10:39.253Z,10.63
2022-12-05T23:12:42.273Z,12.10
2022-12-05T23:14:45.243Z,12.77
2022-12-05T23:16:48.245Z,13.40
2022-12-05T23:18:53.520Z,10.73
2022-12-05T23:20:56.513Z,9.53
2022-12-05T23:22:59.492Z,10.53
2022-12-05T23:25:02.464Z,11.77
2022-12-05T23:27:09.798Z,14.00
2022-12-05T23:29:14.878Z,13.90
2022-12-05T23:31:18.284Z,16.03
2022-12-05T23:33:21.479Z,15.17
2022-12-05T23:35:24.497Z,15.10
2022-12-05T23:37:27.516Z,17.70
2022-12-05T23:39:30.668Z,13.90
2022-12-05T23:41:33.851Z,20.00
2022-12-05T23:43:38.650Z,16.77
2022-12-05T23:45:41.924Z,14.67
2022-12-05T23:47:44.929Z,19.23
2022-12-05T23:49:48.097Z,19.90
2022-12-05T23:51:51.100Z,18.53
2022-12-05T23:53:55.752Z,16.83
2022-12-05T23:56:02.252Z,18.47
2022-12-05T23:58:05.195Z,20.00
